sensor_id;sensor_type;location;lat;lon;timestamp;temperature;humidity
39371;DHT22;25099;51.946;4.838;2022-11-20T00:01:26;-1.30;99.90
39371;DHT22;25099;51.946;4.838;2022-11-20T00:03:54;-1.40;99.90
39371;DHT22;25099;51.946;4.838;2022-11-20T00:06:22;-1.50;99.90
39371;DHT22;25099;51.946;4.838;2022-11-20T00:08:48;-1.50;99.90
39371;DHT22;25099;51.946;4.838;2022-11-20T00:11:18;-1.50;99.90
39371;DHT22;25099;51.946;4.838;2022-11-20T00:13:44;-1.50;99.90
39371;DHT22;25099;51.946;4.838;2022-11-20T00:16:11;-1.50;99.90
39371;DHT22;25099;51.946;4.838;2022-11-20T00:18:37;-1.50;99.90
39371;DHT22;25099;51.946;4.838;2022-11-20T00:21:04;-1.50;99.90
39371;DHT22;25099;51.946;4.838;2022-11-20T00:23:33;-1.50;99.90
39371;DHT22;25099;51.946;4.838;2022-11-20T00:26:06;-1.60;99.90
39371;DHT22;25099;51.946;4.838;2022-11-20T00:28:33;-1.50;99.90
39371;DHT22;25099;51.946;4.838;2022-11-20T00:31:17;-1.60;99.90
39371;DHT22;25099;51.946;4.838;2022-11-20T00:33:43;-1.60;99.90
39371;DHT22;25099;51.946;4.838;2022-11-20T00:36:12;-1.60;99.90
39371;DHT22;25099;51.946;4.838;2022-11-20T00:38:38;-1.60;99.90
39371;DHT22;25099;51.946;4.838;2022-11-20T00:41:06;-1.70;99.90
39371;DHT22;25099;51.946;4.838;2022-11-20T00:43:32;-1.70;99.90
39371;DHT22;25099;51.946;4.838;2022-11-20T00:48:23;-1.70;99.90
39371;DHT22;25099;51.946;4.838;2022-11-20T00:50:49;-1.70;99.90
39371;DHT22;25099;51.946;4.838;2022-11-20T00:53:14;-1.70;99.90
39371;DHT22;25099;51.946;4.838;2022-11-20T00:55:40;-1.70;99.90
39371;DHT22;25099;51.946;4.838;2022-11-20T00:58:06;-1.70;99.90
39371;DHT22;25099;51.946;4.838;2022-11-20T01:00:31;-1.80;99.90
39371;DHT22;25099;51.946;4.838;2022-11-20T01:02:57;-1.80;99.90
39371;DHT22;25099;51.946;4.838;2022-11-20T01:05:22;-1.80;99.90
39371;DHT22;25099;51.946;4.838;2022-11-20T01:07:48;-1.90;99.90
39371;DHT22;25099;51.946;4.838;2022-11-20T01:10:13;-1.90;99.90
39371;DHT22;25099;51.946;4.838;2022-11-20T01:12:39;-1.90;99.90
39371;DHT22;25099;51.946;4.838;2022-11-20T01:15:05;-1.90;99.90
39371;DHT22;25099;51.946;4.838;2022-11-20T01:17:31;-1.90;99.90
39371;DHT22;25099;51.946;4.838;2022-11-20T01:19:57;-1.90;99.90
39371;DHT22;25099;51.946;4.838;2022-11-20T01:22:22;-1.90;99.90
39371;DHT22;25099;51.946;4.838;2022-11-20T01:24:48;-2.00;99.90
39371;DHT22;25099;51.946;4.838;2022-11-20T01:27:14;-1.90;99.90
39371;DHT22;25099;51.946;4.838;2022-11-20T01:29:39;-2.00;99.90
39371;DHT22;25099;51.946;4.838;2022-11-20T01:32:05;-2.00;99.90
39371;DHT22;25099;51.946;4.838;2022-11-20T01:34:30;-2.00;99.90
39371;DHT22;25099;51.946;4.838;2022-11-20T01:36:56;-2.00;99.90
39371;DHT22;25099;51.946;4.838;2022-11-20T01:39:24;-2.10;99.90
39371;DHT22;25099;51.946;4.838;2022-11-20T01:41:51;-2.10;99.90
39371;DHT22;25099;51.946;4.838;2022-11-20T01:44:55;-2.20;99.90
39371;DHT22;25099;51.946;4.838;2022-11-20T01:47:32;-2.20;99.90
39371;DHT22;25099;51.946;4.838;2022-11-20T01:52:52;-2.20;99.90
39371;DHT22;25099;51.946;4.838;2022-11-20T01:55:23;-2.30;99.90
39371;DHT22;25099;51.946;4.838;2022-11-20T01:57:51;-2.20;99.90
39371;DHT22;25099;51.946;4.838;2022-11-20T02:00:18;-2.30;99.90
39371;DHT22;25099;51.946;4.838;2022-11-20T02:02:50;-2.30;99.90
39371;DHT22;25099;51.946;4.838;2022-11-20T02:05:19;-2.20;99.90
39371;DHT22;25099;51.946;4.838;2022-11-20T02:07:48;-2.30;99.90
39371;DHT22;25099;51.946;4.838;2022-11-20T02:10:14;-2.30;99.90
39371;DHT22;25099;51.946;4.838;2022-11-20T02:12:40;-2.30;99.90
39371;DHT22;25099;51.946;4.838;2022-11-20T02:15:24;-2.40;99.90
39371;DHT22;25099;51.946;4.838;2022-11-20T02:17:50;-2.40;99.90
39371;DHT22;25099;51.946;4.838;2022-11-20T02:20:16;-2.40;99.90
39371;DHT22;25099;51.946;4.838;2022-11-20T02:22:57;-2.40;99.90
39371;DHT22;25099;51.946;4.838;2022-11-20T02:25:26;-2.40;99.90
39371;DHT22;25099;51.946;4.838;2022-11-20T02:27:53;-2.50;99.90
39371;DHT22;25099;51.946;4.838;2022-11-20T02:30:18;-2.60;99.90
39371;DHT22;25099;51.946;4.838;2022-11-20T02:32:44;-2.60;99.90
39371;DHT22;25099;51.946;4.838;2022-11-20T02:37:58;-2.50;99.90
39371;DHT22;25099;51.946;4.838;2022-11-20T02:40:24;-2.60;99.90
39371;DHT22;25099;51.946;4.838;2022-11-20T02:42:54;-2.60;99.90
39371;DHT22;25099;51.946;4.838;2022-11-20T02:45:20;-2.60;99.90
39371;DHT22;25099;51.946;4.838;2022-11-20T02:47:46;-2.70;99.90
39371;DHT22;25099;51.946;4.838;2022-11-20T02:50:11;-2.70;99.90
39371;DHT22;25099;51.946;4.838;2022-11-20T02:52:37;-2.70;99.90
39371;DHT22;25099;51.946;4.838;2022-11-20T02:55:03;-2.70;99.90
39371;DHT22;25099;51.946;4.838;2022-11-20T02:57:29;-2.70;99.90
39371;DHT22;25099;51.946;4.838;2022-11-20T02:59:54;-2.80;99.90
39371;DHT22;25099;51.946;4.838;2022-11-20T03:02:20;-2.70;99.90
39371;DHT22;25099;51.946;4.838;2022-11-20T03:04:46;-2.70;99.90
39371;DHT22;25099;51.946;4.838;2022-11-20T03:07:11;-2.80;99.90
39371;DHT22;25099;51.946;4.838;2022-11-20T03:09:37;-2.80;99.90
39371;DHT22;25099;51.946;4.838;2022-11-20T03:12:02;-2.70;99.90
39371;DHT22;25099;51.946;4.838;2022-11-20T03:14:28;-2.80;99.90
39371;DHT22;25099;51.946;4.838;2022-11-20T03:16:54;-2.80;99.90
39371;DHT22;25099;51.946;4.838;2022-11-20T03:19:20;-2.80;99.90
39371;DHT22;25099;51.946;4.838;2022-11-20T03:21:45;-2.80;99.90
39371;DHT22;25099;51.946;4.838;2022-11-20T03:24:14;-2.80;99.90
39371;DHT22;25099;51.946;4.838;2022-11-20T03:26:40;-2.70;99.90
39371;DHT22;25099;51.946;4.838;2022-11-20T03:29:06;-2.80;99.90
39371;DHT22;25099;51.946;4.838;2022-11-20T03:31:34;-2.80;99.90
39371;DHT22;25099;51.946;4.838;2022-11-20T03:34:02;-2.80;99.90
39371;DHT22;25099;51.946;4.838;2022-11-20T03:36:28;-2.80;99.90
39371;DHT22;25099;51.946;4.838;2022-11-20T03:38:55;-2.80;99.90
39371;DHT22;25099;51.946;4.838;2022-11-20T03:41:24;-2.80;99.90
39371;DHT22;25099;51.946;4.838;2022-11-20T03:43:51;-2.80;99.90
39371;DHT22;25099;51.946;4.838;2022-11-20T03:46:17;-2.70;99.90
39371;DHT22;25099;51.946;4.838;2022-11-20T03:48:43;-2.70;99.90
39371;DHT22;25099;51.946;4.838;2022-11-20T03:51:09;-2.70;99.90
39371;DHT22;25099;51.946;4.838;2022-11-20T03:53:35;-2.70;99.90
39371;DHT22;25099;51.946;4.838;2022-11-20T03:56:01;-2.70;99.90
39371;DHT22;25099;51.946;4.838;2022-11-20T03:58:26;-2.70;99.90
39371;DHT22;25099;51.946;4.838;2022-11-20T04:00:52;-2.70;99.90
39371;DHT22;25099;51.946;4.838;2022-11-20T04:03:17;-2.70;99.90
39371;DHT22;25099;51.946;4.838;2022-11-20T04:05:43;-2.80;99.90
39371;DHT22;25099;51.946;4.838;2022-11-20T04:08:09;-2.90;99.90
39371;DHT22;25099;51.946;4.838;2022-11-20T04:10:35;-2.80;99.90
39371;DHT22;25099;51.946;4.838;2022-11-20T04:13:00;-2.90;99.90
39371;DHT22;25099;51.946;4.838;2022-11-20T04:15:26;-2.90;99.90
39371;DHT22;25099;51.946;4.838;2022-11-20T04:17:51;-2.90;99.90
39371;DHT22;25099;51.946;4.838;2022-11-20T04:20:17;-2.90;99.90
39371;DHT22;25099;51.946;4.838;2022-11-20T04:22:42;-2.90;99.90
39371;DHT22;25099;51.946;4.838;2022-11-20T04:25:08;-2.90;99.90
39371;DHT22;25099;51.946;4.838;2022-11-20T04:27:34;-3.00;99.90
39371;DHT22;25099;51.946;4.838;2022-11-20T04:29:59;-2.90;99.90
39371;DHT22;25099;51.946;4.838;2022-11-20T04:32:25;-3.00;99.90
39371;DHT22;25099;51.946;4.838;2022-11-20T04:34:50;-2.90;99.90
39371;DHT22;25099;51.946;4.838;2022-11-20T04:37:16;-2.90;99.90
39371;DHT22;25099;51.946;4.838;2022-11-20T04:39:41;-2.90;99.90
39371;DHT22;25099;51.946;4.838;2022-11-20T04:42:08;-2.90;99.90
39371;DHT22;25099;51.946;4.838;2022-11-20T04:44:53;-2.90;99.90
39371;DHT22;25099;51.946;4.838;2022-11-20T04:47:19;-2.80;99.90
39371;DHT22;25099;51.946;4.838;2022-11-20T04:49:45;-2.80;99.90
39371;DHT22;25099;51.946;4.838;2022-11-20T04:52:10;-2.80;99.90
39371;DHT22;25099;51.946;4.838;2022-11-20T04:54:36;-2.80;99.90
39371;DHT22;25099;51.946;4.838;2022-11-20T04:57:01;-2.80;99.90
39371;DHT22;25099;51.946;4.838;2022-11-20T04:59:27;-2.80;99.90
39371;DHT22;25099;51.946;4.838;2022-11-20T05:01:52;-2.80;99.90
39371;DHT22;25099;51.946;4.838;2022-11-20T05:04:18;-2.80;99.90
39371;DHT22;25099;51.946;4.838;2022-11-20T05:06:44;-2.70;99.90
39371;DHT22;25099;51.946;4.838;2022-11-20T05:09:11;-2.70;99.90
39371;DHT22;25099;51.946;4.838;2022-11-20T05:11:36;-2.70;99.90
39371;DHT22;25099;51.946;4.838;2022-11-20T05:14:02;-2.70;99.90
39371;DHT22;25099;51.946;4.838;2022-11-20T05:16:28;-2.70;99.90
39371;DHT22;25099;51.946;4.838;2022-11-20T05:18:53;-2.70;99.90
39371;DHT22;25099;51.946;4.838;2022-11-20T05:21:20;-2.70;99.90
39371;DHT22;25099;51.946;4.838;2022-11-20T05:23:46;-2.70;99.90
39371;DHT22;25099;51.946;4.838;2022-11-20T05:26:14;-2.70;99.90
39371;DHT22;25099;51.946;4.838;2022-11-20T05:28:40;-2.70;99.90
39371;DHT22;25099;51.946;4.838;2022-11-20T05:31:16;-2.70;99.90
39371;DHT22;25099;51.946;4.838;2022-11-20T05:33:43;-2.70;99.90
39371;DHT22;25099;51.946;4.838;2022-11-20T05:36:10;-2.70;99.90
39371;DHT22;25099;51.946;4.838;2022-11-20T05:38:36;-2.70;99.90
39371;DHT22;25099;51.946;4.838;2022-11-20T05:41:10;-2.80;99.90
39371;DHT22;25099;51.946;4.838;2022-11-20T05:43:41;-2.80;99.90
39371;DHT22;25099;51.946;4.838;2022-11-20T05:46:09;-2.80;99.90
39371;DHT22;25099;51.946;4.838;2022-11-20T05:48:36;-2.90;99.90
39371;DHT22;25099;51.946;4.838;2022-11-20T05:51:04;-2.90;99.90
39371;DHT22;25099;51.946;4.838;2022-11-20T05:53:30;-2.90;99.90
39371;DHT22;25099;51.946;4.838;2022-11-20T05:58:23;-2.90;99.90
39371;DHT22;25099;51.946;4.838;2022-11-20T06:00:48;-2.90;99.90
39371;DHT22;25099;51.946;4.838;2022-11-20T06:03:14;-2.90;99.90
39371;DHT22;25099;51.946;4.838;2022-11-20T06:05:39;-2.90;99.90
39371;DHT22;25099;51.946;4.838;2022-11-20T06:08:05;-2.80;99.90
39371;DHT22;25099;51.946;4.838;2022-11-20T06:10:30;-2.80;99.90
39371;DHT22;25099;51.946;4.838;2022-11-20T06:12:57;-2.80;99.90
39371;DHT22;25099;51.946;4.838;2022-11-20T06:15:23;-2.70;99.90
39371;DHT22;25099;51.946;4.838;2022-11-20T06:17:52;-2.60;99.90
39371;DHT22;25099;51.946;4.838;2022-11-20T06:20:18;-2.50;99.90
39371;DHT22;25099;51.946;4.838;2022-11-20T06:22:44;-2.40;99.90
39371;DHT22;25099;51.946;4.838;2022-11-20T06:25:09;-2.40;99.90
39371;DHT22;25099;51.946;4.838;2022-11-20T06:27:35;-2.30;99.90
39371;DHT22;25099;51.946;4.838;2022-11-20T06:30:06;-2.20;99.90
39371;DHT22;25099;51.946;4.838;2022-11-20T06:32:33;-1.60;99.90
39371;DHT22;25099;51.946;4.838;2022-11-20T06:34:58;-2.20;99.90
39371;DHT22;25099;51.946;4.838;2022-11-20T06:37:24;-2.10;99.90
39371;DHT22;25099;51.946;4.838;2022-11-20T06:39:49;-2.20;99.90
39371;DHT22;25099;51.946;4.838;2022-11-20T06:42:15;-2.20;99.90
39371;DHT22;25099;51.946;4.838;2022-11-20T06:44:40;-2.20;99.90
39371;DHT22;25099;51.946;4.838;2022-11-20T06:47:06;-2.20;99.90
39371;DHT22;25099;51.946;4.838;2022-11-20T06:49:31;-2.20;99.90
39371;DHT22;25099;51.946;4.838;2022-11-20T06:51:57;-2.20;99.90
39371;DHT22;25099;51.946;4.838;2022-11-20T06:54:22;-2.20;99.90
39371;DHT22;25099;51.946;4.838;2022-11-20T06:56:48;-2.20;99.90
39371;DHT22;25099;51.946;4.838;2022-11-20T06:59:14;-2.10;99.90
39371;DHT22;25099;51.946;4.838;2022-11-20T07:01:39;-2.10;99.90
39371;DHT22;25099;51.946;4.838;2022-11-20T07:04:05;-2.10;99.90
39371;DHT22;25099;51.946;4.838;2022-11-20T07:06:31;-2.10;99.90
39371;DHT22;25099;51.946;4.838;2022-11-20T07:08:56;-2.00;99.90
39371;DHT22;25099;51.946;4.838;2022-11-20T07:11:25;-2.00;99.90
39371;DHT22;25099;51.946;4.838;2022-11-20T07:13:50;-2.00;99.90
39371;DHT22;25099;51.946;4.838;2022-11-20T07:16:16;-1.90;99.90
39371;DHT22;25099;51.946;4.838;2022-11-20T07:18:42;-1.90;99.90
39371;DHT22;25099;51.946;4.838;2022-11-20T07:21:09;-1.80;99.90
39371;DHT22;25099;51.946;4.838;2022-11-20T07:23:36;-1.70;99.90
39371;DHT22;25099;51.946;4.838;2022-11-20T07:26:09;-1.70;99.90
39371;DHT22;25099;51.946;4.838;2022-11-20T07:28:35;-1.50;99.90
39371;DHT22;25099;51.946;4.838;2022-11-20T07:31:01;-1.50;99.90
39371;DHT22;25099;51.946;4.838;2022-11-20T07:33:27;-1.40;99.90
39371;DHT22;25099;51.946;4.838;2022-11-20T07:35:53;-1.40;99.90
39371;DHT22;25099;51.946;4.838;2022-11-20T07:38:18;-1.30;99.90
39371;DHT22;25099;51.946;4.838;2022-11-20T07:40:44;-1.20;99.90
39371;DHT22;25099;51.946;4.838;2022-11-20T07:43:09;-1.10;99.90
39371;DHT22;25099;51.946;4.838;2022-11-20T07:45:35;-1.10;99.90
39371;DHT22;25099;51.946;4.838;2022-11-20T07:48:01;-1.00;99.90
39371;DHT22;25099;51.946;4.838;2022-11-20T07:50:26;-1.00;99.90
39371;DHT22;25099;51.946;4.838;2022-11-20T07:53:07;-0.90;99.90
39371;DHT22;25099;51.946;4.838;2022-11-20T07:55:33;-0.80;99.90
39371;DHT22;25099;51.946;4.838;2022-11-20T07:57:58;-0.90;99.90
39371;DHT22;25099;51.946;4.838;2022-11-20T08:00:25;-0.80;99.90
39371;DHT22;25099;51.946;4.838;2022-11-20T08:02:51;-0.80;99.90
39371;DHT22;25099;51.946;4.838;2022-11-20T08:05:17;-0.80;99.90
39371;DHT22;25099;51.946;4.838;2022-11-20T08:07:43;-0.80;99.90
39371;DHT22;25099;51.946;4.838;2022-11-20T08:10:11;-0.80;99.90
39371;DHT22;25099;51.946;4.838;2022-11-20T08:12:44;-0.70;99.90
39371;DHT22;25099;51.946;4.838;2022-11-20T08:15:28;-0.70;99.90
39371;DHT22;25099;51.946;4.838;2022-11-20T08:18:01;-0.70;99.90
39371;DHT22;25099;51.946;4.838;2022-11-20T08:20:27;-0.70;99.90
39371;DHT22;25099;51.946;4.838;2022-11-20T08:22:57;-0.60;99.90
39371;DHT22;25099;51.946;4.838;2022-11-20T08:25:24;-0.50;99.90
39371;DHT22;25099;51.946;4.838;2022-11-20T08:27:49;-0.50;99.90
39371;DHT22;25099;51.946;4.838;2022-11-20T08:30:15;-0.40;99.90
39371;DHT22;25099;51.946;4.838;2022-11-20T08:32:40;-0.40;99.90
39371;DHT22;25099;51.946;4.838;2022-11-20T08:35:06;-0.30;99.90
39371;DHT22;25099;51.946;4.838;2022-11-20T08:37:32;-0.30;99.90
39371;DHT22;25099;51.946;4.838;2022-11-20T08:39:57;-0.20;99.90
39371;DHT22;25099;51.946;4.838;2022-11-20T08:42:24;-0.20;99.90
39371;DHT22;25099;51.946;4.838;2022-11-20T08:44:49;-0.10;99.90
39371;DHT22;25099;51.946;4.838;2022-11-20T08:47:15;-0.10;99.90
39371;DHT22;25099;51.946;4.838;2022-11-20T08:49:40;0.00;99.90
39371;DHT22;25099;51.946;4.838;2022-11-20T08:52:06;0.10;99.90
39371;DHT22;25099;51.946;4.838;2022-11-20T08:54:31;0.10;99.90
39371;DHT22;25099;51.946;4.838;2022-11-20T08:56:57;0.10;99.90
39371;DHT22;25099;51.946;4.838;2022-11-20T08:59:22;0.20;99.90
39371;DHT22;25099;51.946;4.838;2022-11-20T09:01:48;0.30;99.90
39371;DHT22;25099;51.946;4.838;2022-11-20T09:04:14;0.30;99.90
39371;DHT22;25099;51.946;4.838;2022-11-20T09:06:40;0.40;99.90
39371;DHT22;25099;51.946;4.838;2022-11-20T09:09:05;0.40;99.90
39371;DHT22;25099;51.946;4.838;2022-11-20T09:11:31;0.50;99.90
39371;DHT22;25099;51.946;4.838;2022-11-20T09:13:57;-0.40;99.90
39371;DHT22;25099;51.946;4.838;2022-11-20T09:16:22;0.50;99.90
39371;DHT22;25099;51.946;4.838;2022-11-20T09:18:49;0.50;99.90
39371;DHT22;25099;51.946;4.838;2022-11-20T09:21:16;0.60;99.90
39371;DHT22;25099;51.946;4.838;2022-11-20T09:23:42;0.60;99.90
39371;DHT22;25099;51.946;4.838;2022-11-20T09:26:12;0.60;99.90
39371;DHT22;25099;51.946;4.838;2022-11-20T09:28:38;0.70;99.90
39371;DHT22;25099;51.946;4.838;2022-11-20T09:31:24;0.70;99.90
39371;DHT22;25099;51.946;4.838;2022-11-20T09:33:51;0.80;99.90
39371;DHT22;25099;51.946;4.838;2022-11-20T09:36:17;0.80;99.90
39371;DHT22;25099;51.946;4.838;2022-11-20T09:38:44;0.90;99.90
39371;DHT22;25099;51.946;4.838;2022-11-20T09:41:39;1.00;99.90
39371;DHT22;25099;51.946;4.838;2022-11-20T09:47:13;1.10;99.90
39371;DHT22;25099;51.946;4.838;2022-11-20T09:53:34;1.20;99.90
39371;DHT22;25099;51.946;4.838;2022-11-20T09:56:02;1.30;99.90
39371;DHT22;25099;51.946;4.838;2022-11-20T10:01:09;1.40;99.90
39371;DHT22;25099;51.946;4.838;2022-11-20T10:06:32;1.50;99.90
39371;DHT22;25099;51.946;4.838;2022-11-20T10:11:46;1.70;99.90
39371;DHT22;25099;51.946;4.838;2022-11-20T10:14:16;1.70;99.90
39371;DHT22;25099;51.946;4.838;2022-11-20T10:30:16;2.00;99.90
39371;DHT22;25099;51.946;4.838;2022-11-20T10:32:47;2.00;99.90
39371;DHT22;25099;51.946;4.838;2022-11-20T10:35:16;1.90;99.90
39371;DHT22;25099;51.946;4.838;2022-11-20T10:37:46;2.00;99.90
39371;DHT22;25099;51.946;4.838;2022-11-20T10:43:00;2.00;99.90
39371;DHT22;25099;51.946;4.838;2022-11-20T10:50:37;2.00;99.90
39371;DHT22;25099;51.946;4.838;2022-11-20T10:53:21;2.10;99.90
39371;DHT22;25099;51.946;4.838;2022-11-20T10:56:02;2.10;99.90
39371;DHT22;25099;51.946;4.838;2022-11-20T10:58:48;2.20;99.90
39371;DHT22;25099;51.946;4.838;2022-11-20T11:01:21;2.20;99.90
39371;DHT22;25099;51.946;4.838;2022-11-20T11:03:51;2.30;99.90
39371;DHT22;25099;51.946;4.838;2022-11-20T11:06:32;2.30;99.90
39371;DHT22;25099;51.946;4.838;2022-11-20T11:09:02;2.40;99.90
39371;DHT22;25099;51.946;4.838;2022-11-20T11:11:32;2.40;99.90
39371;DHT22;25099;51.946;4.838;2022-11-20T11:14:12;2.50;99.90
39371;DHT22;25099;51.946;4.838;2022-11-20T11:16:55;2.50;99.90
39371;DHT22;25099;51.946;4.838;2022-11-20T11:19:21;2.50;99.90
39371;DHT22;25099;51.946;4.838;2022-11-20T11:21:57;2.50;99.90
39371;DHT22;25099;51.946;4.838;2022-11-20T11:24:24;2.50;99.90
39371;DHT22;25099;51.946;4.838;2022-11-20T11:29:24;2.60;99.90
39371;DHT22;25099;51.946;4.838;2022-11-20T11:32:03;2.60;99.90
39371;DHT22;25099;51.946;4.838;2022-11-20T11:34:29;2.70;99.90
39371;DHT22;25099;51.946;4.838;2022-11-20T11:36:59;2.70;99.90
39371;DHT22;25099;51.946;4.838;2022-11-20T11:39:27;2.80;99.90
39371;DHT22;25099;51.946;4.838;2022-11-20T11:41:53;2.80;99.90
39371;DHT22;25099;51.946;4.838;2022-11-20T11:44:20;2.80;99.90
39371;DHT22;25099;51.946;4.838;2022-11-20T11:47:10;2.80;99.90
39371;DHT22;25099;51.946;4.838;2022-11-20T11:49:36;2.90;99.90
39371;DHT22;25099;51.946;4.838;2022-11-20T11:52:12;2.90;99.90
39371;DHT22;25099;51.946;4.838;2022-11-20T12:00:11;2.90;99.90
39371;DHT22;25099;51.946;4.838;2022-11-20T12:05:24;3.00;99.90
39371;DHT22;25099;51.946;4.838;2022-11-20T12:13:34;3.10;99.90
39371;DHT22;25099;51.946;4.838;2022-11-20T12:16:02;3.20;99.90
39371;DHT22;25099;51.946;4.838;2022-11-20T12:18:28;3.20;99.90
39371;DHT22;25099;51.946;4.838;2022-11-20T12:24:14;3.20;99.90
39371;DHT22;25099;51.946;4.838;2022-11-20T12:43:23;3.40;99.90
39371;DHT22;25099;51.946;4.838;2022-11-20T12:49:29;3.30;99.90
39371;DHT22;25099;51.946;4.838;2022-11-20T12:55:13;3.30;99.90
39371;DHT22;25099;51.946;4.838;2022-11-20T12:58:00;3.30;99.90
39371;DHT22;25099;51.946;4.838;2022-11-20T13:00:30;3.40;99.90
39371;DHT22;25099;51.946;4.838;2022-11-20T13:08:25;3.40;99.90
39371;DHT22;25099;51.946;4.838;2022-11-20T13:10:58;3.50;99.90
39371;DHT22;25099;51.946;4.838;2022-11-20T13:16:21;3.40;99.90
39371;DHT22;25099;51.946;4.838;2022-11-20T13:18:48;3.50;99.90
39371;DHT22;25099;51.946;4.838;2022-11-20T13:21:38;3.50;99.90
39371;DHT22;25099;51.946;4.838;2022-11-20T13:24:19;3.50;99.90
39371;DHT22;25099;51.946;4.838;2022-11-20T13:26:46;3.50;99.90
39371;DHT22;25099;51.946;4.838;2022-11-20T13:29:17;3.50;99.90
39371;DHT22;25099;51.946;4.838;2022-11-20T13:31:45;3.60;99.90
39371;DHT22;25099;51.946;4.838;2022-11-20T13:34:21;3.70;99.90
39371;DHT22;25099;51.946;4.838;2022-11-20T13:36:53;3.60;99.90
39371;DHT22;25099;51.946;4.838;2022-11-20T13:39:27;3.60;99.90
39371;DHT22;25099;51.946;4.838;2022-11-20T13:42:20;3.60;99.90
39371;DHT22;25099;51.946;4.838;2022-11-20T13:44:53;3.60;99.90
39371;DHT22;25099;51.946;4.838;2022-11-20T13:47:27;3.60;99.90
39371;DHT22;25099;51.946;4.838;2022-11-20T13:49:54;3.60;99.90
39371;DHT22;25099;51.946;4.838;2022-11-20T13:52:51;3.70;99.90
39371;DHT22;25099;51.946;4.838;2022-11-20T13:55:46;3.70;99.90
39371;DHT22;25099;51.946;4.838;2022-11-20T14:01:10;3.80;99.90
39371;DHT22;25099;51.946;4.838;2022-11-20T14:03:40;3.80;99.90
39371;DHT22;25099;51.946;4.838;2022-11-20T14:06:21;3.70;99.90
39371;DHT22;25099;51.946;4.838;2022-11-20T14:08:51;3.70;99.90
39371;DHT22;25099;51.946;4.838;2022-11-20T14:16:22;3.70;99.90
39371;DHT22;25099;51.946;4.838;2022-11-20T14:18:48;3.70;99.90
39371;DHT22;25099;51.946;4.838;2022-11-20T14:21:33;3.70;99.90
39371;DHT22;25099;51.946;4.838;2022-11-20T14:24:06;3.70;99.90
39371;DHT22;25099;51.946;4.838;2022-11-20T14:26:32;3.70;99.90
39371;DHT22;25099;51.946;4.838;2022-11-20T14:28:59;3.70;99.90
39371;DHT22;25099;51.946;4.838;2022-11-20T14:31:26;3.70;99.90
39371;DHT22;25099;51.946;4.838;2022-11-20T14:33:55;3.70;99.90
39371;DHT22;25099;51.946;4.838;2022-11-20T14:36:24;3.70;99.90
39371;DHT22;25099;51.946;4.838;2022-11-20T14:38:51;3.70;99.90
39371;DHT22;25099;51.946;4.838;2022-11-20T14:41:24;3.70;99.90
39371;DHT22;25099;51.946;4.838;2022-11-20T14:43:57;3.70;99.90
39371;DHT22;25099;51.946;4.838;2022-11-20T14:46:24;3.70;99.90
39371;DHT22;25099;51.946;4.838;2022-11-20T14:48:55;3.70;99.90
39371;DHT22;25099;51.946;4.838;2022-11-20T14:51:30;3.70;99.90
39371;DHT22;25099;51.946;4.838;2022-11-20T14:54:17;3.70;99.90
39371;DHT22;25099;51.946;4.838;2022-11-20T14:56:57;3.70;99.90
39371;DHT22;25099;51.946;4.838;2022-11-20T14:59:25;3.70;99.90
39371;DHT22;25099;51.946;4.838;2022-11-20T15:02:09;3.70;99.90
39371;DHT22;25099;51.946;4.838;2022-11-20T15:05:04;3.70;99.90
39371;DHT22;25099;51.946;4.838;2022-11-20T15:07:33;3.80;99.90
39371;DHT22;25099;51.946;4.838;2022-11-20T15:10:06;3.70;99.90
39371;DHT22;25099;51.946;4.838;2022-11-20T15:12:34;3.70;99.90
39371;DHT22;25099;51.946;4.838;2022-11-20T15:15:01;3.70;99.90
39371;DHT22;25099;51.946;4.838;2022-11-20T15:17:29;3.70;99.90
39371;DHT22;25099;51.946;4.838;2022-11-20T15:19:55;3.80;99.90
39371;DHT22;25099;51.946;4.838;2022-11-20T15:22:21;3.70;99.90
39371;DHT22;25099;51.946;4.838;2022-11-20T15:24:47;3.80;99.90
39371;DHT22;25099;51.946;4.838;2022-11-20T15:27:12;4.40;99.90
39371;DHT22;25099;51.946;4.838;2022-11-20T15:29:38;3.80;99.90
39371;DHT22;25099;51.946;4.838;2022-11-20T15:32:03;3.80;99.90
39371;DHT22;25099;51.946;4.838;2022-11-20T15:34:29;3.80;99.90
39371;DHT22;25099;51.946;4.838;2022-11-20T15:36:55;3.90;99.90
39371;DHT22;25099;51.946;4.838;2022-11-20T15:39:20;3.80;99.90
39371;DHT22;25099;51.946;4.838;2022-11-20T15:41:46;3.80;99.90
39371;DHT22;25099;51.946;4.838;2022-11-20T15:44:12;3.80;99.90
39371;DHT22;25099;51.946;4.838;2022-11-20T15:46:40;3.90;99.90
39371;DHT22;25099;51.946;4.838;2022-11-20T15:49:13;3.90;99.90
39371;DHT22;25099;51.946;4.838;2022-11-20T15:51:48;3.90;99.90
39371;DHT22;25099;51.946;4.838;2022-11-20T15:54:16;3.90;99.90
39371;DHT22;25099;51.946;4.838;2022-11-20T15:56:43;3.90;99.90
39371;DHT22;25099;51.946;4.838;2022-11-20T15:59:09;3.90;99.90
39371;DHT22;25099;51.946;4.838;2022-11-20T16:01:37;4.90;99.90
39371;DHT22;25099;51.946;4.838;2022-11-20T16:04:07;4.10;99.90
39371;DHT22;25099;51.946;4.838;2022-11-20T16:06:34;4.00;99.90
39371;DHT22;25099;51.946;4.838;2022-11-20T16:08:59;4.10;99.90
39371;DHT22;25099;51.946;4.838;2022-11-20T16:11:25;4.10;99.90
39371;DHT22;25099;51.946;4.838;2022-11-20T16:13:50;4.10;99.90
39371;DHT22;25099;51.946;4.838;2022-11-20T16:16:36;4.10;99.90
39371;DHT22;25099;51.946;4.838;2022-11-20T16:19:03;4.10;99.90
39371;DHT22;25099;51.946;4.838;2022-11-20T16:21:29;4.10;99.90
39371;DHT22;25099;51.946;4.838;2022-11-20T16:24:09;4.10;99.90
39371;DHT22;25099;51.946;4.838;2022-11-20T16:26:36;4.20;99.90
39371;DHT22;25099;51.946;4.838;2022-11-20T16:29:03;4.20;99.90
39371;DHT22;25099;51.946;4.838;2022-11-20T16:31:29;4.20;99.90
39371;DHT22;25099;51.946;4.838;2022-11-20T16:34:00;4.30;99.90
39371;DHT22;25099;51.946;4.838;2022-11-20T16:36:27;4.30;99.90
39371;DHT22;25099;51.946;4.838;2022-11-20T16:38:55;4.30;99.90
39371;DHT22;25099;51.946;4.838;2022-11-20T16:41:25;4.30;99.90
39371;DHT22;25099;51.946;4.838;2022-11-20T16:43:56;4.30;99.90
39371;DHT22;25099;51.946;4.838;2022-11-20T16:46:27;4.30;99.90
39371;DHT22;25099;51.946;4.838;2022-11-20T16:48:55;4.30;99.90
39371;DHT22;25099;51.946;4.838;2022-11-20T16:51:21;4.30;99.90
39371;DHT22;25099;51.946;4.838;2022-11-20T16:53:47;4.30;99.90
39371;DHT22;25099;51.946;4.838;2022-11-20T16:56:22;4.20;99.90
39371;DHT22;25099;51.946;4.838;2022-11-20T16:58:49;4.70;99.90
39371;DHT22;25099;51.946;4.838;2022-11-20T17:01:18;4.30;99.90
39371;DHT22;25099;51.946;4.838;2022-11-20T17:03:46;4.30;99.90
39371;DHT22;25099;51.946;4.838;2022-11-20T17:06:16;4.30;99.90
39371;DHT22;25099;51.946;4.838;2022-11-20T17:08:42;4.30;99.90
39371;DHT22;25099;51.946;4.838;2022-11-20T17:11:09;4.30;99.90
39371;DHT22;25099;51.946;4.838;2022-11-20T17:13:35;4.40;99.90
39371;DHT22;25099;51.946;4.838;2022-11-20T17:16:08;4.30;99.90
39371;DHT22;25099;51.946;4.838;2022-11-20T17:18:34;4.30;99.90
39371;DHT22;25099;51.946;4.838;2022-11-20T17:21:01;4.30;99.90
39371;DHT22;25099;51.946;4.838;2022-11-20T17:23:34;4.30;99.90
39371;DHT22;25099;51.946;4.838;2022-11-20T17:26:05;4.30;99.90
39371;DHT22;25099;51.946;4.838;2022-11-20T17:28:31;4.30;99.90
39371;DHT22;25099;51.946;4.838;2022-11-20T17:31:08;4.30;99.90
39371;DHT22;25099;51.946;4.838;2022-11-20T17:33:36;4.30;99.90